sensor_id;sensor_type;location;lat;lon;timestamp;pressure;altitude;pressure_sealevel;temperature;humidity
17505;BME280;8870;50.950;11.762;2022-08-19T00:05:09;97938.91;;;18.85;100.00
17505;BME280;8870;50.950;11.762;2022-08-19T00:10:16;97948.13;;;18.84;100.00
17505;BME280;8870;50.950;11.762;2022-08-19T00:15:23;97945.91;;;18.74;100.00
17505;BME280;8870;50.950;11.762;2022-08-19T00:20:30;97946.97;;;18.73;100.00
17505;BME280;8870;50.950;11.762;2022-08-19T00:25:35;97935.84;;;18.74;100.00
17505;BME280;8870;50.950;11.762;2022-08-19T00:30:41;97947.34;;;18.76;100.00
17505;BME280;8870;50.950;11.762;2022-08-19T00:35:48;97941.69;;;18.78;100.00
17505;BME280;8870;50.950;11.762;2022-08-19T00:40:56;97937.53;;;18.75;100.00
17505;BME280;8870;50.950;11.762;2022-08-19T00:46:01;97936.44;;;18.76;100.00
17505;BME280;8870;50.950;11.762;2022-08-19T00:51:09;97937.06;;;18.78;100.00
17505;BME280;8870;50.950;11.762;2022-08-19T00:56:13;97920.06;;;18.76;100.00
17505;BME280;8870;50.950;11.762;2022-08-19T01:01:18;97901.88;;;18.70;100.00
17505;BME280;8870;50.950;11.762;2022-08-19T01:06:26;97896.88;;;18.67;100.00
17505;BME280;8870;50.950;11.762;2022-08-19T01:11:36;97880.13;;;18.63;100.00
17505;BME280;8870;50.950;11.762;2022-08-19T01:16:44;97873.25;;;18.61;100.00
17505;BME280;8870;50.950;11.762;2022-08-19T01:21:55;97864.44;;;18.59;100.00
17505;BME280;8870;50.950;11.762;2022-08-19T01:27:18;97860.50;;;18.55;100.00
17505;BME280;8870;50.950;11.762;2022-08-19T01:32:23;97859.97;;;18.46;100.00
17505;BME280;8870;50.950;11.762;2022-08-19T01:37:42;97860.19;;;18.44;100.00
17505;BME280;8870;50.950;11.762;2022-08-19T01:42:50;97847.84;;;18.42;100.00
17505;BME280;8870;50.950;11.762;2022-08-19T01:47:57;97845.56;;;18.39;100.00
17505;BME280;8870;50.950;11.762;2022-08-19T01:53:06;97839.91;;;18.40;100.00
17505;BME280;8870;50.950;11.762;2022-08-19T01:58:18;97847.41;;;18.45;100.00
17505;BME280;8870;50.950;11.762;2022-08-19T02:03:25;97831.84;;;18.45;100.00
17505;BME280;8870;50.950;11.762;2022-08-19T02:08:32;97836.03;;;18.48;100.00
17505;BME280;8870;50.950;11.762;2022-08-19T02:13:40;97850.72;;;18.47;100.00
17505;BME280;8870;50.950;11.762;2022-08-19T02:18:45;97855.78;;;18.43;100.00
17505;BME280;8870;50.950;11.762;2022-08-19T02:23:50;97854.97;;;18.43;100.00
17505;BME280;8870;50.950;11.762;2022-08-19T02:28:58;97836.94;;;18.42;100.00
17505;BME280;8870;50.950;11.762;2022-08-19T02:34:03;97857.91;;;18.41;100.00
17505;BME280;8870;50.950;11.762;2022-08-19T02:39:07;97854.13;;;18.42;100.00
17505;BME280;8870;50.950;11.762;2022-08-19T02:44:18;97864.59;;;18.45;100.00
17505;BME280;8870;50.950;11.762;2022-08-19T02:49:31;97860.81;;;18.46;100.00
17505;BME280;8870;50.950;11.762;2022-08-19T02:54:36;97875.94;;;18.42;100.00
17505;BME280;8870;50.950;11.762;2022-08-19T02:59:43;97903.69;;;18.39;100.00
17505;BME280;8870;50.950;11.762;2022-08-19T03:04:48;97918.75;;;18.42;100.00
17505;BME280;8870;50.950;11.762;2022-08-19T03:09:54;97928.38;;;18.44;100.00
17505;BME280;8870;50.950;11.762;2022-08-19T03:15:02;97941.81;;;18.46;100.00
17505;BME280;8870;50.950;11.762;2022-08-19T03:20:10;97956.03;;;18.48;100.00
17505;BME280;8870;50.950;11.762;2022-08-19T03:25:15;97964.00;;;18.50;100.00
17505;BME280;8870;50.950;11.762;2022-08-19T03:30:22;97961.72;;;18.46;100.00
17505;BME280;8870;50.950;11.762;2022-08-19T03:35:27;97969.47;;;18.50;100.00
17505;BME280;8870;50.950;11.762;2022-08-19T03:40:35;97967.34;;;18.52;100.00
17505;BME280;8870;50.950;11.762;2022-08-19T03:45:43;97968.19;;;18.52;100.00
17505;BME280;8870;50.950;11.762;2022-08-19T03:50:48;97967.72;;;18.55;100.00
17505;BME280;8870;50.950;11.762;2022-08-19T03:55:54;97978.84;;;18.54;100.00
17505;BME280;8870;50.950;11.762;2022-08-19T04:01:02;97973.41;;;18.54;100.00
17505;BME280;8870;50.950;11.762;2022-08-19T04:06:11;97977.78;;;18.55;100.00
17505;BME280;8870;50.950;11.762;2022-08-19T04:11:18;97978.16;;;18.58;100.00
17505;BME280;8870;50.950;11.762;2022-08-19T04:16:47;97963.09;;;18.56;100.00
17505;BME280;8870;50.950;11.762;2022-08-19T04:21:54;97958.25;;;18.58;100.00
17505;BME280;8870;50.950;11.762;2022-08-19T04:26:59;97952.19;;;18.56;100.00
17505;BME280;8870;50.950;11.762;2022-08-19T04:32:06;97963.09;;;18.56;100.00
17505;BME280;8870;50.950;11.762;2022-08-19T04:37:11;97946.72;;;18.56;100.00
17505;BME280;8870;50.950;11.762;2022-08-19T04:42:17;97947.34;;;18.58;100.00
17505;BME280;8870;50.950;11.762;2022-08-19T04:47:37;97942.50;;;18.60;100.00
17505;BME280;8870;50.950;11.762;2022-08-19T04:52:52;97945.84;;;18.62;100.00
17505;BME280;8870;50.950;11.762;2022-08-19T04:57:57;97949.63;;;18.61;100.00
17505;BME280;8870;50.950;11.762;2022-08-19T05:03:05;97949.00;;;18.59;100.00
17505;BME280;8870;50.950;11.762;2022-08-19T05:08:20;97934.94;;;18.62;100.00
17505;BME280;8870;50.950;11.762;2022-08-19T05:13:39;97938.72;;;18.61;100.00
17505;BME280;8870;50.950;11.762;2022-08-19T05:18:47;97941.81;;;18.64;100.00
17505;BME280;8870;50.950;11.762;2022-08-19T05:24:05;97948.50;;;18.69;100.00
17505;BME280;8870;50.950;11.762;2022-08-19T05:29:12;97952.91;;;18.70;100.00
17505;BME280;8870;50.950;11.762;2022-08-19T05:34:22;97952.69;;;18.71;100.00
17505;BME280;8870;50.950;11.762;2022-08-19T05:39:29;97943.19;;;18.74;100.00
17505;BME280;8870;50.950;11.762;2022-08-19T05:44:38;97948.22;;;18.77;100.00
17505;BME280;8870;50.950;11.762;2022-08-19T05:49:48;97963.91;;;18.82;100.00
17505;BME280;8870;50.950;11.762;2022-08-19T05:54:54;97961.41;;;18.80;100.00
17505;BME280;8870;50.950;11.762;2022-08-19T05:59:58;97964.56;;;18.77;100.00
17505;BME280;8870;50.950;11.762;2022-08-19T06:05:14;97967.91;;;18.79;100.00
17505;BME280;8870;50.950;11.762;2022-08-19T06:10:19;97989.75;;;18.79;100.00
17505;BME280;8870;50.950;11.762;2022-08-19T06:15:24;98016.56;;;18.82;100.00
17505;BME280;8870;50.950;11.762;2022-08-19T06:20:32;98018.03;;;18.85;100.00
17505;BME280;8870;50.950;11.762;2022-08-19T06:25:56;98033.72;;;18.89;100.00
17505;BME280;8870;50.950;11.762;2022-08-19T06:31:06;98040.63;;;18.92;100.00
17505;BME280;8870;50.950;11.762;2022-08-19T06:36:20;98052.19;;;18.94;100.00
17505;BME280;8870;50.950;11.762;2022-08-19T06:41:29;98051.78;;;18.90;100.00
17505;BME280;8870;50.950;11.762;2022-08-19T06:46:35;98061.00;;;18.96;100.00
17505;BME280;8870;50.950;11.762;2022-08-19T06:51:45;98077.16;;;18.98;100.00
17505;BME280;8870;50.950;11.762;2022-08-19T06:56:53;98080.72;;;18.98;100.00
17505;BME280;8870;50.950;11.762;2022-08-19T07:01:59;98088.28;;;18.96;100.00
17505;BME280;8870;50.950;11.762;2022-08-19T07:07:09;98088.91;;;18.98;100.00
17505;BME280;8870;50.950;11.762;2022-08-19T07:12:22;98087.25;;;18.97;100.00
17505;BME280;8870;50.950;11.762;2022-08-19T07:17:27;98077.38;;;18.96;100.00
17505;BME280;8870;50.950;11.762;2022-08-19T07:22:38;98067.91;;;18.99;100.00
17505;BME280;8870;50.950;11.762;2022-08-19T07:27:44;98074.41;;;18.98;100.00
17505;BME280;8870;50.950;11.762;2022-08-19T07:32:55;98071.47;;;18.99;100.00
17505;BME280;8870;50.950;11.762;2022-08-19T07:38:07;98073.28;;;19.05;100.00
17505;BME280;8870;50.950;11.762;2022-08-19T07:43:12;98078.53;;;19.07;100.00
17505;BME280;8870;50.950;11.762;2022-08-19T07:48:18;98074.53;;;19.09;100.00
17505;BME280;8870;50.950;11.762;2022-08-19T07:53:30;98088.56;;;19.13;100.00
17505;BME280;8870;50.950;11.762;2022-08-19T07:58:42;98089.56;;;19.19;100.00
17505;BME280;8870;50.950;11.762;2022-08-19T08:03:49;98090.59;;;19.18;100.00
17505;BME280;8870;50.950;11.762;2022-08-19T08:09:11;98096.06;;;19.18;100.00
17505;BME280;8870;50.950;11.762;2022-08-19T08:14:24;98105.69;;;19.20;100.00
17505;BME280;8870;50.950;11.762;2022-08-19T08:19:36;98108.06;;;19.17;100.00
17505;BME280;8870;50.950;11.762;2022-08-19T08:24:45;98115.81;;;19.20;100.00
17505;BME280;8870;50.950;11.762;2022-08-19T08:29:51;98114.13;;;19.19;100.00
17505;BME280;8870;50.950;11.762;2022-08-19T08:34:55;98123.16;;;19.19;100.00
17505;BME280;8870;50.950;11.762;2022-08-19T08:40:05;98118.53;;;19.20;100.00
17505;BME280;8870;50.950;11.762;2022-08-19T08:45:17;98132.19;;;19.20;100.00
17505;BME280;8870;50.950;11.762;2022-08-19T08:50:28;98132.00;;;19.15;100.00
17505;BME280;8870;50.950;11.762;2022-08-19T08:55:37;98139.09;;;18.97;100.00
17505;BME280;8870;50.950;11.762;2022-08-19T09:00:45;98130.09;;;18.90;100.00
17505;BME280;8870;50.950;11.762;2022-08-19T09:05:58;98106.03;;;18.80;100.00
17505;BME280;8870;50.950;11.762;2022-08-19T09:11:12;98110.09;;;18.71;100.00
17505;BME280;8870;50.950;11.762;2022-08-19T09:16:39;98107.59;;;18.69;100.00
17505;BME280;8870;50.950;11.762;2022-08-19T09:21:44;98094.38;;;18.66;100.00
17505;BME280;8870;50.950;11.762;2022-08-19T09:26:52;98101.50;;;18.67;100.00
17505;BME280;8870;50.950;11.762;2022-08-19T09:31:58;98103.19;;;18.68;100.00
17505;BME280;8870;50.950;11.762;2022-08-19T09:37:02;98104.84;;;18.69;100.00
17505;BME280;8870;50.950;11.762;2022-08-19T09:42:11;98113.22;;;18.74;100.00
17505;BME280;8870;50.950;11.762;2022-08-19T09:47:30;98108.97;;;18.78;100.00
17505;BME280;8870;50.950;11.762;2022-08-19T09:52:41;98122.19;;;18.82;100.00
17505;BME280;8870;50.950;11.762;2022-08-19T09:58:01;98125.34;;;18.78;100.00
17505;BME280;8870;50.950;11.762;2022-08-19T10:03:06;98130.03;;;18.71;100.00
17505;BME280;8870;50.950;11.762;2022-08-19T10:08:13;98135.53;;;18.64;100.00
17505;BME280;8870;50.950;11.762;2022-08-19T10:13:23;98119.66;;;18.55;100.00
17505;BME280;8870;50.950;11.762;2022-08-19T10:18:28;98117.19;;;18.46;100.00
17505;BME280;8870;50.950;11.762;2022-08-19T10:23:36;98122.41;;;18.48;100.00
17505;BME280;8870;50.950;11.762;2022-08-19T10:28:44;98130.63;;;18.41;100.00
17505;BME280;8870;50.950;11.762;2022-08-19T10:33:50;98144.75;;;18.38;100.00
17505;BME280;8870;50.950;11.762;2022-08-19T10:39:06;98143.75;;;18.26;100.00
17505;BME280;8870;50.950;11.762;2022-08-19T10:44:16;98143.28;;;18.29;100.00
17505;BME280;8870;50.950;11.762;2022-08-19T10:49:23;98135.75;;;18.31;100.00
17505;BME280;8870;50.950;11.762;2022-08-19T10:54:28;98143.69;;;18.39;100.00
17505;BME280;8870;50.950;11.762;2022-08-19T10:59:48;98166.09;;;18.41;100.00
17505;BME280;8870;50.950;11.762;2022-08-19T11:04:53;98162.59;;;18.34;100.00
17505;BME280;8870;50.950;11.762;2022-08-19T11:10:04;98167.19;;;18.40;100.00
17505;BME280;8870;50.950;11.762;2022-08-19T11:15:16;98164.88;;;18.37;100.00
17505;BME280;8870;50.950;11.762;2022-08-19T11:20:21;98171.78;;;18.40;100.00
17505;BME280;8870;50.950;11.762;2022-08-19T11:25:27;98171.00;;;18.32;100.00
17505;BME280;8870;50.950;11.762;2022-08-19T11:30:36;98171.03;;;18.26;100.00
17505;BME280;8870;50.950;11.762;2022-08-19T11:35:41;98164.19;;;18.48;100.00
17505;BME280;8870;50.950;11.762;2022-08-19T11:40:54;98139.72;;;18.67;100.00
17505;BME280;8870;50.950;11.762;2022-08-19T11:46:03;98128.94;;;18.79;100.00
17505;BME280;8870;50.950;11.762;2022-08-19T11:51:10;98123.94;;;19.01;100.00
17505;BME280;8870;50.950;11.762;2022-08-19T11:56:15;98127.03;;;19.30;100.00
17505;BME280;8870;50.950;11.762;2022-08-19T12:01:24;98116.50;;;19.52;100.00
17505;BME280;8870;50.950;11.762;2022-08-19T12:06:31;98103.38;;;19.61;100.00
17505;BME280;8870;50.950;11.762;2022-08-19T12:11:37;98080.47;;;19.62;100.00
17505;BME280;8870;50.950;11.762;2022-08-19T12:16:45;98080.75;;;19.73;100.00
17505;BME280;8870;50.950;11.762;2022-08-19T12:21:58;98071.13;;;19.70;100.00
17505;BME280;8870;50.950;11.762;2022-08-19T12:27:04;98073.91;;;19.82;100.00
17505;BME280;8870;50.950;11.762;2022-08-19T12:32:16;98077.94;;;19.98;100.00
17505;BME280;8870;50.950;11.762;2022-08-19T12:37:20;98065.03;;;20.17;100.00
17505;BME280;8870;50.950;11.762;2022-08-19T12:42:25;98046.78;;;20.29;100.00
17505;BME280;8870;50.950;11.762;2022-08-19T12:47:32;98044.28;;;20.28;100.00
17505;BME280;8870;50.950;11.762;2022-08-19T12:52:49;98064.28;;;20.28;100.00
17505;BME280;8870;50.950;11.762;2022-08-19T12:57:53;98073.25;;;20.59;100.00
17505;BME280;8870;50.950;11.762;2022-08-19T13:03:00;98076.44;;;20.75;100.00
17505;BME280;8870;50.950;11.762;2022-08-19T13:08:05;98067.97;;;20.88;100.00
17505;BME280;8870;50.950;11.762;2022-08-19T13:13:10;98057.50;;;20.97;100.00
17505;BME280;8870;50.950;11.762;2022-08-19T13:18:17;98067.84;;;20.95;100.00
17505;BME280;8870;50.950;11.762;2022-08-19T13:23:23;98071.78;;;20.99;100.00
17505;BME280;8870;50.950;11.762;2022-08-19T13:28:28;98081.06;;;20.86;100.00
17505;BME280;8870;50.950;11.762;2022-08-19T13:33:55;98095.34;;;20.76;100.00
17505;BME280;8870;50.950;11.762;2022-08-19T13:39:00;98105.06;;;20.72;100.00
17505;BME280;8870;50.950;11.762;2022-08-19T13:44:05;98091.00;;;20.69;100.00
17505;BME280;8870;50.950;11.762;2022-08-19T13:49:18;98101.09;;;20.56;100.00
17505;BME280;8870;50.950;11.762;2022-08-19T13:54:25;98107.53;;;20.62;100.00
17505;BME280;8870;50.950;11.762;2022-08-19T13:59:29;98104.53;;;20.52;100.00
17505;BME280;8870;50.950;11.762;2022-08-19T14:04:37;98102.22;;;20.37;100.00
17505;BME280;8870;50.950;11.762;2022-08-19T14:09:42;98103.91;;;20.38;100.00
17505;BME280;8870;50.950;11.762;2022-08-19T14:14:49;98105.56;;;20.39;100.00
17505;BME280;8870;50.950;11.762;2022-08-19T14:19:59;98097.59;;;20.37;100.00
17505;BME280;8870;50.950;11.762;2022-08-19T14:25:14;98096.75;;;20.37;100.00
17505;BME280;8870;50.950;11.762;2022-08-19T14:30:25;98090.94;;;20.33;100.00
17505;BME280;8870;50.950;11.762;2022-08-19T14:35:33;98093.84;;;20.50;100.00
17505;BME280;8870;50.950;11.762;2022-08-19T14:40:41;98092.16;;;20.49;100.00
17505;BME280;8870;50.950;11.762;2022-08-19T14:45:47;98087.59;;;20.43;100.00
17505;BME280;8870;50.950;11.762;2022-08-19T14:50:56;98089.78;;;20.53;100.00
17505;BME280;8870;50.950;11.762;2022-08-19T14:56:01;98086.34;;;20.57;100.00
17505;BME280;8870;50.950;11.762;2022-08-19T15:01:06;98098.13;;;20.58;100.00
17505;BME280;8870;50.950;11.762;2022-08-19T15:06:14;98089.22;;;20.62;100.00
17505;BME280;8870;50.950;11.762;2022-08-19T15:11:23;98083.03;;;20.67;100.00
17505;BME280;8870;50.950;11.762;2022-08-19T15:16:29;98081.72;;;20.70;100.00
17505;BME280;8870;50.950;11.762;2022-08-19T15:21:36;98070.41;;;20.66;100.00
17505;BME280;8870;50.950;11.762;2022-08-19T15:26:45;98061.69;;;20.45;100.00
17505;BME280;8870;50.950;11.762;2022-08-19T15:31:50;98062.50;;;20.34;100.00
17505;BME280;8870;50.950;11.762;2022-08-19T15:37:01;98055.19;;;20.16;100.00
17505;BME280;8870;50.950;11.762;2022-08-19T15:42:06;98057.06;;;20.04;100.00
17505;BME280;8870;50.950;11.762;2022-08-19T15:47:18;98055.13;;;20.04;100.00
17505;BME280;8870;50.950;11.762;2022-08-19T15:52:26;98055.50;;;20.08;100.00
17505;BME280;8870;50.950;11.762;2022-08-19T15:57:30;98048.38;;;20.07;100.00
17505;BME280;8870;50.950;11.762;2022-08-19T16:02:47;98044.19;;;20.04;100.00
17505;BME280;8870;50.950;11.762;2022-08-19T16:08:07;98030.28;;;20.06;100.00
17505;BME280;8870;50.950;11.762;2022-08-19T16:13:12;98035.19;;;20.04;100.00
17505;BME280;8870;50.950;11.762;2022-08-19T16:18:17;98030.97;;;20.01;100.00
17505;BME280;8870;50.950;11.762;2022-08-19T16:23:24;98024.53;;;19.95;100.00
17505;BME280;8870;50.950;11.762;2022-08-19T16:28:29;98024.53;;;19.95;100.00
17505;BME280;8870;50.950;11.762;2022-08-19T16:33:34;98021.69;;;19.90;100.00
17505;BME280;8870;50.950;11.762;2022-08-19T16:38:42;98028.44;;;19.88;100.00
17505;BME280;8870;50.950;11.762;2022-08-19T16:43:47;98044.06;;;19.80;100.00
17505;BME280;8870;50.950;11.762;2022-08-19T16:48:55;98046.19;;;19.78;100.00
17505;BME280;8870;50.950;11.762;2022-08-19T17:04:55;98059.81;;;19.66;100.00
17505;BME280;8870;50.950;11.762;2022-08-19T17:10:01;98056.22;;;19.66;100.00
17505;BME280;8870;50.950;11.762;2022-08-19T17:15:07;98061.94;;;19.64;100.00
17505;BME280;8870;50.950;11.762;2022-08-19T17:20:15;98059.91;;;19.60;100.00
17505;BME280;8870;50.950;11.762;2022-08-19T17:25:20;98056.19;;;19.54;100.00
17505;BME280;8870;50.950;11.762;2022-08-19T17:30:26;98057.84;;;19.55;100.00
17505;BME280;8870;50.950;11.762;2022-08-19T17:35:37;98056.19;;;19.54;100.00
17505;BME280;8870;50.950;11.762;2022-08-19T17:40:45;98063.31;;;19.55;100.00
17505;BME280;8870;50.950;11.762;2022-08-19T17:45:52;98058.91;;;19.54;100.00
17505;BME280;8870;50.950;11.762;2022-08-19T17:50:59;98071.97;;;19.52;100.00
17505;BME280;8870;50.950;11.762;2022-08-19T17:56:04;98074.09;;;19.50;100.00
17505;BME280;8870;50.950;11.762;2022-08-19T18:01:11;98063.22;;;19.43;100.00
17505;BME280;8870;50.950;11.762;2022-08-19T18:06:20;98060.13;;;19.39;100.00
17505;BME280;8870;50.950;11.762;2022-08-19T18:11:25;98056.16;;;19.35;100.00
17505;BME280;8870;50.950;11.762;2022-08-19T18:16:29;98057.69;;;19.31;100.00
17505;BME280;8870;50.950;11.762;2022-08-19T18:21:38;98056.47;;;19.27;100.00
17505;BME280;8870;50.950;11.762;2022-08-19T18:26:43;98051.47;;;19.24;100.00
17505;BME280;8870;50.950;11.762;2022-08-19T18:31:47;98053.28;;;19.12;100.00
17505;BME280;8870;50.950;11.762;2022-08-19T18:36:55;98060.03;;;19.09;100.00
17505;BME280;8870;50.950;11.762;2022-08-19T18:41:59;98077.69;;;19.06;100.00
17505;BME280;8870;50.950;11.762;2022-08-19T18:47:16;98073.75;;;19.02;100.00
17505;BME280;8870;50.950;11.762;2022-08-19T18:52:36;98092.03;;;19.02;100.00
17505;BME280;8870;50.950;11.762;2022-08-19T18:57:41;98095.81;;;19.01;100.00
17505;BME280;8870;50.950;11.762;2022-08-19T19:02:46;98100.41;;;19.00;100.00
17505;BME280;8870;50.950;11.762;2022-08-19T19:07:53;98104.44;;;18.98;100.00
17505;BME280;8870;50.950;11.762;2022-08-19T19:12:58;98112.25;;;18.94;100.00
17505;BME280;8870;50.950;11.762;2022-08-19T19:18:02;98106.13;;;18.92;100.00
17505;BME280;8870;50.950;11.762;2022-08-19T19:23:09;98108.25;;;18.90;100.00
17505;BME280;8870;50.950;11.762;2022-08-19T19:28:14;98127.22;;;18.85;100.00
17505;BME280;8870;50.950;11.762;2022-08-19T19:33:26;98127.41;;;18.83;100.00
17505;BME280;8870;50.950;11.762;2022-08-19T19:38:34;98132.03;;;18.83;100.00
17505;BME280;8870;50.950;11.762;2022-08-19T19:43:40;98145.06;;;18.81;100.00
17505;BME280;8870;50.950;11.762;2022-08-19T19:48:45;98157.47;;;18.76;100.00
17505;BME280;8870;50.950;11.762;2022-08-19T19:53:53;98145.13;;;18.74;100.00
17505;BME280;8870;50.950;11.762;2022-08-19T19:58:58;98148.13;;;18.66;100.00
17505;BME280;8870;50.950;11.762;2022-08-19T20:04:04;98163.53;;;18.53;100.00
17505;BME280;8870;50.950;11.762;2022-08-19T20:09:11;98167.53;;;18.51;100.00
17505;BME280;8870;50.950;11.762;2022-08-19T20:14:22;98152.66;;;18.46;100.00
17505;BME280;8870;50.950;11.762;2022-08-19T20:19:29;98159.78;;;18.47;100.00
17505;BME280;8870;50.950;11.762;2022-08-19T20:24:41;98186.88;;;18.42;100.00
17505;BME280;8870;50.950;11.762;2022-08-19T20:29:46;98189.59;;;18.42;100.00
17505;BME280;8870;50.950;11.762;2022-08-19T20:34:52;98193.59;;;18.40;100.00
17505;BME280;8870;50.950;11.762;2022-08-19T20:40:03;98187.75;;;18.36;100.00
17505;BME280;8870;50.950;11.762;2022-08-19T20:45:13;98176.66;;;18.31;100.00
17505;BME280;8870;50.950;11.762;2022-08-19T20:50:35;98169.75;;;18.28;100.00
17505;BME280;8870;50.950;11.762;2022-08-19T20:55:45;98173.53;;;18.27;100.00
17505;BME280;8870;50.950;11.762;2022-08-19T21:00:52;98177.72;;;18.23;100.00
17505;BME280;8870;50.950;11.762;2022-08-19T21:05:58;98187.81;;;18.23;100.00
17505;BME280;8870;50.950;11.762;2022-08-19T21:11:05;98191.59;;;18.22;100.00
17505;BME280;8870;50.950;11.762;2022-08-19T21:16:10;98186.56;;;18.18;100.00
17505;BME280;8870;50.950;11.762;2022-08-19T21:21:15;98191.84;;;18.13;100.00
17505;BME280;8870;50.950;11.762;2022-08-19T21:26:23;98196.25;;;18.14;100.00
17505;BME280;8870;50.950;11.762;2022-08-19T21:31:28;98202.75;;;18.13;100.00
17505;BME280;8870;50.950;11.762;2022-08-19T21:36:33;98200.03;;;18.13;100.00
17505;BME280;8870;50.950;11.762;2022-08-19T21:41:40;98209.47;;;18.11;100.00
17505;BME280;8870;50.950;11.762;2022-08-19T21:46:45;98219.53;;;18.10;100.00
17505;BME280;8870;50.950;11.762;2022-08-19T21:51:54;98211.38;;;18.04;100.00
17505;BME280;8870;50.950;11.762;2022-08-19T21:57:01;98215.53;;;18.06;100.00
17505;BME280;8870;50.950;11.762;2022-08-19T22:02:12;98226.69;;;18.05;100.00
17505;BME280;8870;50.950;11.762;2022-08-19T22:07:22;98221.44;;;18.03;100.00
17505;BME280;8870;50.950;11.762;2022-08-19T22:12:32;98219.97;;;18.00;100.00
17505;BME280;8870;50.950;11.762;2022-08-19T22:17:38;98212.25;;;17.97;100.00
17505;BME280;8870;50.950;11.762;2022-08-19T22:22:45;98205.72;;;17.92;100.00
17505;BME280;8870;50.950;11.762;2022-08-19T22:27:53;98207.81;;;17.90;100.00
17505;BME280;8870;50.950;11.762;2022-08-19T22:33:05;98197.97;;;17.89;100.00
17505;BME280;8870;50.950;11.762;2022-08-19T22:38:11;98201.75;;;17.87;100.00
17505;BME280;8870;50.950;11.762;2022-08-19T22:43:21;98206.97;;;17.89;100.00
17505;BME280;8870;50.950;11.762;2022-08-19T22:48:29;98216.00;;;17.90;100.00
17505;BME280;8870;50.950;11.762;2022-08-19T22:53:37;98214.75;;;17.85;100.00
17505;BME280;8870;50.950;11.762;2022-08-19T22:58:45;98226.50;;;17.79;100.00
17505;BME280;8870;50.950;11.762;2022-08-19T23:03:52;98226.13;;;17.69;100.00
17505;BME280;8870;50.950;11.762;2022-08-19T23:08:57;98234.50;;;17.61;100.00
17505;BME280;8870;50.950;11.762;2022-08-19T23:14:08;98225.06;;;17.63;100.00
17505;BME280;8870;50.950;11.762;2022-08-19T23:19:13;98226.72;;;17.64;100.00
17505;BME280;8870;50.950;11.762;2022-08-19T23:24:18;98239.09;;;17.67;100.00
17505;BME280;8870;50.950;11.762;2022-08-19T23:29:25;98253.34;;;17.69;100.00
17505;BME280;8870;50.950;11.762;2022-08-19T23:34:43;98252.91;;;17.72;100.00
17505;BME280;8870;50.950;11.762;2022-08-19T23:39:48;98247.03;;;17.75;100.00
17505;BME280;8870;50.950;11.762;2022-08-19T23:44:58;98240.56;;;17.76;100.00
17505;BME280;8870;50.950;11.762;2022-08-19T23:50:08;98249.34;;;17.78;100.00
17505;BME280;8870;50.950;11.762;2022-08-19T23:55:15;98260.03;;;17.80;100.00
